Time;durP1;ratioP1;P1;durP2;ratioP2;P2;SDS_P1;SDS_P2;PMS_P1;PMS_P2;Temp;Humidity;BMP_temperature;BMP_pressure;BME280_temperature;BME280_humidity;BME280_pressure;Samples;Min_cycle;Max_cycle;Signal;HPM_P1;HPM_P2
2022/01/03 00:01:20;;;;;;;3.90;1.73;;;13.60;77.50;;;14.10;49.85;98739.63;4946456;28;113996;-85
2022/01/03 00:03:47;;;;;;;2.77;1.33;;;13.60;77.30;;;14.10;49.71;98734.91;4945671;28;124159;-86
2022/01/03 00:06:19;;;;;;;2.43;1.40;;;13.60;77.10;;;14.13;49.48;98737.00;4950582;28;123020;-86
2022/01/03 00:08:46;;;;;;;2.03;1.50;;;13.70;76.90;;;14.18;49.06;98741.53;4947881;28;114246;-86
2022/01/03 00:11:16;;;;;;;5.13;2.17;;;13.70;76.40;;;14.21;48.71;98723.38;4980681;28;113967;-88
2022/01/03 00:13:50;;;;;;;2.17;1.50;;;13.70;75.90;;;14.26;48.63;98706.50;4948719;28;123967;-87
2022/01/03 00:16:17;;;;;;;4.03;1.50;;;13.80;75.90;;;14.27;48.50;98717.28;4943921;28;123630;-85
2022/01/03 00:18:43;;;;;;;1.50;1.40;;;13.80;75.80;;;14.29;48.55;98714.16;4948112;28;114298;-86
2022/01/03 00:21:15;;;;;;;2.83;1.80;;;13.80;75.70;;;14.32;48.38;98699.59;4948367;28;113863;-86
2022/01/03 00:23:51;;;;;;;3.00;1.87;;;13.90;75.50;;;14.34;48.36;98697.28;4940536;28;124008;-86
2022/01/03 00:26:26;;;;;;;6.57;1.80;;;13.90;75.40;;;14.35;48.14;98718.38;4953229;28;123364;-86
2022/01/03 00:29:06;;;;;;;2.40;1.57;;;13.90;75.00;;;14.36;48.17;98700.53;4944914;28;115180;-87
2022/01/03 00:31:43;;;;;;;4.13;1.87;;;13.90;74.90;;;14.37;47.98;98721.59;4938356;28;114776;-87
2022/01/03 00:34:13;;;;;;;3.17;1.77;;;13.90;74.70;;;14.36;48.28;98687.44;4949206;28;124392;-86
2022/01/03 00:36:42;;;;;;;5.77;2.60;;;13.90;74.90;;;14.36;48.04;98740.25;4948393;28;122700;-85
2022/01/03 00:39:09;;;;;;;7.77;1.87;;;13.90;74.40;;;14.39;47.80;98719.31;4935606;28;113867;-86
2022/01/03 00:41:42;;;;;;;5.40;1.70;;;14.00;74.20;;;14.39;47.74;98730.44;4948589;28;113987;-87
2022/01/03 00:44:10;;;;;;;4.30;1.67;;;14.00;74.20;;;14.39;47.35;98733.22;4941031;28;124007;-86
2022/01/03 00:46:36;;;;;;;3.30;1.47;;;14.00;74.00;;;14.40;47.50;98703.44;4946966;28;123623;-84
2022/01/03 00:49:05;;;;;;;2.73;1.57;;;14.00;74.00;;;14.43;47.43;98711.13;4945676;28;114150;-84
2022/01/03 00:51:31;;;;;;;4.57;1.80;;;14.00;74.00;;;14.41;47.48;98719.78;4959447;28;113117;-86
2022/01/03 00:53:58;;;;;;;4.20;1.70;;;14.00;73.90;;;14.44;47.18;98724.66;4939363;28;123750;-87
2022/01/03 00:56:36;;;;;;;4.10;1.60;;;14.00;73.60;;;14.45;47.17;98729.06;4947646;28;123952;-87
2022/01/03 00:59:25;;;;;;;3.37;1.47;;;14.00;73.40;;;14.46;47.06;98743.78;4939095;28;113975;-87
2022/01/03 01:01:55;;;;;;;7.47;1.87;;;14.00;73.60;;;14.45;47.20;98759.63;4972631;28;113089;-86
2022/01/03 01:04:23;;;;;;;3.83;1.77;;;14.00;73.60;;;14.47;47.18;98734.28;4970601;28;123092;-85
2022/01/03 01:06:55;;;;;;;7.33;4.73;;;14.00;73.70;;;14.46;47.44;98730.69;4949275;28;123830;-88
2022/01/03 01:09:26;;;;;;;5.37;2.43;;;14.00;73.70;;;14.44;47.38;98755.25;4941360;28;114293;-86
2022/01/03 01:11:57;;;;;;;5.80;1.80;;;14.00;73.70;;;14.47;47.58;98754.56;4950488;28;114036;-88
2022/01/03 01:14:26;;;;;;;3.20;1.40;;;14.00;73.70;;;14.45;47.58;98740.19;4941712;28;124084;-85
2022/01/03 01:16:55;;;;;;;2.63;1.30;;;14.00;73.70;;;14.45;47.52;98744.94;4944085;28;122928;-87
2022/01/03 01:19:24;;;;;;;5.27;1.80;;;14.00;73.80;;;14.46;47.18;98758.50;4943834;28;115099;-87
2022/01/03 01:21:52;;;;;;;4.77;1.70;;;14.00;73.70;;;14.44;47.33;98744.13;4949724;28;115042;-87
2022/01/03 01:24:22;;;;;;;4.27;1.70;;;14.00;73.70;;;14.42;47.35;98751.97;4979530;28;124145;-86
2022/01/03 01:29:37;;;;;;;2.30;1.40;;;14.00;73.60;;;14.40;47.42;98748.75;4948696;28;114948;-87
2022/01/03 01:32:04;;;;;;;2.17;1.67;;;14.00;73.60;;;14.39;47.48;98755.44;4948234;28;112955;-85
2022/01/03 01:34:35;;;;;;;3.53;1.50;;;14.00;73.70;;;14.41;47.42;98749.56;4965155;28;123527;-85
2022/01/03 01:37:02;;;;;;;3.80;1.87;;;14.00;73.70;;;14.40;47.65;98757.09;4934512;28;123975;-86
2022/01/03 01:39:30;;;;;;;3.87;1.60;;;14.00;73.70;;;14.41;47.61;98772.59;4963081;28;114103;-87
2022/01/03 01:42:00;;;;;;;6.30;2.03;;;14.00;73.80;;;14.42;47.65;98768.66;4954817;28;113216;-87
2022/01/03 01:44:31;;;;;;;2.80;1.50;;;14.00;73.80;;;14.43;47.52;98775.88;4947321;28;124351;-87
2022/01/03 01:47:04;;;;;;;3.53;1.33;;;14.00;73.90;;;14.42;47.65;98768.66;4950268;28;124484;-87
2022/01/03 01:49:39;;;;;;;7.40;2.30;;;14.00;73.90;;;14.40;47.58;98771.00;4979514;28;114278;-87
2022/01/03 01:52:16;;;;;;;2.10;1.40;;;14.00;74.00;;;14.38;47.79;98773.28;4980358;28;114271;-86
2022/01/03 01:54:56;;;;;;;6.50;1.60;;;14.00;74.00;;;14.40;47.84;98772.94;4948430;28;124130;-87
2022/01/03 01:57:40;;;;;;;3.43;1.80;;;14.00;74.20;;;14.39;47.88;98763.78;4949856;28;123872;-87
2022/01/03 02:00:13;;;;;;;4.20;1.73;;;14.00;74.30;;;14.39;47.86;98757.41;4934479;28;113504;-87
2022/01/03 02:03:25;;;;;;;1.67;1.13;;;13.90;74.30;;;14.32;47.90;98763.53;4948103;28;112652;-87
2022/01/03 02:06:18;;;;;;;4.87;1.73;;;13.90;74.30;;;14.33;47.73;98792.94;4949225;28;123144;-86
2022/01/03 02:09:10;;;;;;;7.23;1.90;;;13.90;74.40;;;14.27;48.35;98761.75;4947673;28;123862;-87
2022/01/03 02:11:56;;;;;;;2.17;1.60;;;13.80;74.60;;;14.26;48.34;98770.41;4947119;28;115108;-86
2022/01/03 02:14:26;;;;;;;4.77;1.63;;;13.80;74.70;;;14.23;48.87;98782.22;4952982;28;114789;-87
2022/01/03 02:16:53;;;;;;;2.30;1.30;;;13.70;74.70;;;14.22;48.52;98769.47;4950490;28;123076;-86
2022/01/03 02:19:20;;;;;;;3.37;1.27;;;13.80;75.00;;;14.20;48.80;98775.34;4952455;28;124419;-85
2022/01/03 02:21:47;;;;;;;3.47;1.47;;;13.80;75.10;;;14.19;48.83;98770.16;4949432;28;114335;-86
2022/01/03 02:24:13;;;;;;;2.97;1.87;;;13.80;75.20;;;14.20;48.89;98766.22;4957963;28;114070;-87
2022/01/03 02:26:42;;;;;;;4.47;2.10;;;13.70;75.30;;;14.19;49.00;98767.38;4938007;28;124069;-87
2022/01/03 02:29:09;;;;;;;2.33;1.30;;;13.70;75.40;;;14.18;48.99;98760.97;4964510;28;123916;-87
2022/01/03 02:31:37;;;;;;;7.63;1.87;;;13.70;75.50;;;14.18;49.15;98763.75;4951558;28;113345;-85
2022/01/03 02:34:23;;;;;;;4.93;1.83;;;13.70;75.60;;;14.18;49.23;98760.19;4959792;28;113927;-86
2022/01/03 02:36:50;;;;;;;1.70;1.50;;;13.80;75.90;;;14.17;49.44;98764.94;4953159;28;123884;-86
2022/01/03 02:39:17;;;;;;;4.33;1.50;;;13.70;75.90;;;14.14;49.42;98766.41;4956544;28;124108;-86
2022/01/03 02:41:43;;;;;;;3.63;1.63;;;13.80;76.00;;;14.12;49.60;98771.47;4952329;28;114303;-85
2022/01/03 02:44:10;;;;;;;7.63;2.20;;;13.70;76.00;;;14.12;49.51;98765.13;4950162;28;113900;-86
2022/01/03 02:46:36;;;;;;;3.73;1.63;;;13.70;76.80;;;14.09;49.60;98766.59;4950576;28;123887;-88
2022/01/03 02:49:05;;;;;;;2.70;1.53;;;13.70;76.40;;;14.11;49.79;98763.50;4951812;28;123611;-86
2022/01/03 02:51:32;;;;;;;6.90;2.10;;;13.60;76.40;;;14.11;49.86;98767.09;4951879;28;114455;-87
2022/01/03 02:54:00;;;;;;;2.97;1.70;;;13.70;76.70;;;14.10;49.76;98762.69;4952223;28;113840;-85
2022/01/03 02:56:33;;;;;;;5.10;1.60;;;13.60;76.50;;;14.09;49.89;98768.56;4950253;28;124201;-87
2022/01/03 02:59:00;;;;;;;2.43;1.30;;;13.60;76.60;;;14.08;49.89;98765.00;4953579;28;124324;-87
2022/01/03 03:01:26;;;;;;;3.00;1.50;;;13.60;76.60;;;14.05;49.85;98764.81;4955261;28;114718;-86
2022/01/03 03:03:54;;;;;;;4.40;1.73;;;13.60;76.60;;;14.03;49.90;98767.97;4956517;28;115430;-86
2022/01/03 03:06:21;;;;;;;4.80;1.70;;;13.60;76.70;;;14.01;49.92;98781.38;4955269;28;124031;-86
2022/01/03 03:08:48;;;;;;;2.20;1.30;;;13.70;76.80;;;14.00;49.97;98790.84;4962262;28;123008;-87
2022/01/03 03:11:14;;;;;;;3.53;1.90;;;13.60;76.70;;;13.98;50.04;98776.47;4954260;28;115141;-87
2022/01/03 03:13:41;;;;;;;4.57;1.30;;;13.60;76.70;;;13.96;50.02;98787.09;4952868;28;115103;-86
2022/01/03 03:16:08;;;;;;;4.70;1.87;;;13.50;77.30;;;13.95;50.02;98777.16;4953915;28;124131;-87
2022/01/03 03:18:35;;;;;;;3.27;1.50;;;13.50;76.60;;;13.96;50.11;98773.22;4955426;28;123296;-87
2022/01/03 03:21:01;;;;;;;2.57;1.20;;;13.50;76.80;;;13.96;49.91;98794.63;4955131;28;113450;-87
2022/01/03 03:23:28;;;;;;;5.50;2.10;;;13.50;76.70;;;13.95;50.02;98788.28;4953898;28;114079;-86
2022/01/03 03:25:55;;;;;;;4.13;1.77;;;13.50;76.70;;;13.93;49.91;98787.78;4952568;28;123390;-87
2022/01/03 03:28:25;;;;;;;4.67;1.60;;;13.50;76.60;;;13.91;49.87;98798.41;4948711;28;124235;-87
2022/01/03 03:30:52;;;;;;;6.73;2.03;;;13.50;76.50;;;13.90;49.99;98785.69;4951480;28;114289;-84
2022/01/03 03:33:22;;;;;;;2.60;1.60;;;13.50;76.50;;;13.88;49.85;98787.97;4951415;28;114007;-85
2022/01/03 03:35:51;;;;;;;2.60;1.60;;;13.60;76.50;;;13.87;49.90;98787.16;4982635;28;123115;-87
2022/01/03 03:38:19;;;;;;;2.57;1.43;;;13.50;76.40;;;13.90;49.74;98791.22;4941392;28;123772;-87
2022/01/03 03:41:23;;;;;;;3.30;1.50;;;13.50;76.40;;;13.90;49.60;98791.22;4951405;28;114297;-87
2022/01/03 03:43:50;;;;;;;4.37;1.50;;;13.50;76.20;;;13.88;49.38;98788.78;4947923;28;114324;-87
2022/01/03 03:46:16;;;;;;;5.23;1.83;;;13.40;75.90;;;13.87;49.59;98787.16;4950723;28;124027;-87
2022/01/03 03:48:43;;;;;;;2.53;1.43;;;13.50;76.00;;;13.86;49.25;98776.38;4953411;28;124103;-86
2022/01/03 03:51:09;;;;;;;5.93;1.90;;;13.40;75.80;;;13.86;49.21;98774.44;4948181;28;114923;-86
2022/01/03 03:53:37;;;;;;;3.40;1.77;;;13.40;75.70;;;13.87;49.15;98772.47;4945133;28;114774;-87
2022/01/03 03:56:05;;;;;;;5.17;1.40;;;13.40;75.60;;;13.86;49.11;98776.38;4936785;28;123701;-87
2022/01/03 03:58:32;;;;;;;2.37;1.23;;;13.40;75.50;;;13.85;49.01;98760.88;4951178;28;123721;-86
2022/01/03 04:00:59;;;;;;;2.60;1.40;;;13.40;75.20;;;13.84;49.02;98767.59;4948331;28;114134;-85
2022/01/03 04:03:28;;;;;;;1.60;1.30;;;13.40;75.20;;;13.83;48.73;98771.50;4944581;28;112388;-87
2022/01/03 04:05:56;;;;;;;3.40;1.50;;;13.40;75.00;;;13.81;48.55;98760.75;4949636;28;124091;-86
2022/01/03 04:08:22;;;;;;;4.07;1.40;;;13.40;74.70;;;13.80;48.58;98769.38;4931352;28;124571;-87
2022/01/03 04:10:48;;;;;;;4.60;1.50;;;13.40;74.60;;;13.79;48.58;98778.88;4933619;28;114458;-85
2022/01/03 04:13:15;;;;;;;4.70;1.50;;;13.40;74.40;;;13.80;48.32;98777.72;4938518;28;114098;-85
2022/01/03 04:15:41;;;;;;;5.73;2.10;;;13.30;74.10;;;13.80;48.17;98775.75;4953382;28;124098;-87
2022/01/03 04:18:08;;;;;;;2.60;1.33;;;13.30;74.00;;;13.78;47.99;98777.22;4955620;28;124311;-87
2022/01/03 04:20:34;;;;;;;4.57;1.60;;;13.30;73.90;;;13.79;48.00;98773.31;4957372;28;114654;-85
2022/01/03 04:23:01;;;;;;;2.93;1.50;;;13.40;74.00;;;13.81;48.18;98768.22;4949483;28;114340;-86
2022/01/03 04:25:27;;;;;;;2.07;1.20;;;13.40;74.00;;;13.83;47.97;98774.28;4952408;28;124243;-86
2022/01/03 04:27:54;;;;;;;5.60;1.70;;;13.40;74.00;;;13.83;47.94;98769.53;4948269;28;123606;-86
2022/01/03 04:30:20;;;;;;;1.67;1.30;;;13.40;74.00;;;13.84;47.88;98781.47;4948853;28;114051;-87
2022/01/03 04:32:47;;;;;;;2.43;1.53;;;13.40;73.80;;;13.87;47.94;98780.81;4949811;28;113225;-86
2022/01/03 04:35:15;;;;;;;6.50;1.77;;;13.40;73.90;;;13.89;47.86;98781.28;4953349;28;124483;-86
2022/01/03 04:37:43;;;;;;;3.03;1.40;;;13.40;73.90;;;13.87;47.90;98789.94;4960281;28;124768;-84
2022/01/03 04:40:12;;;;;;;2.33;1.30;;;13.40;73.80;;;13.88;47.75;98790.75;4968670;28;113886;-86
2022/01/03 04:42:39;;;;;;;2.90;1.80;;;13.40;73.80;;;13.88;47.87;98799.88;4953734;28;115097;-84
2022/01/03 04:45:07;;;;;;;4.00;1.70;;;13.40;73.80;;;13.88;48.18;98794.34;4950492;28;124038;-84
2022/01/03 04:47:33;;;;;;;5.07;1.77;;;13.40;74.00;;;13.88;48.14;98790.75;4984755;28;123397;-87
2022/01/03 04:50:00;;;;;;;4.80;1.43;;;13.40;74.30;;;13.91;48.35;98795.63;4960117;28;114396;-87
2022/01/03 04:52:27;;;;;;;4.73;1.47;;;13.40;74.50;;;13.94;48.47;98794.94;4950180;28;113769;-86
2022/01/03 04:54:55;;;;;;;3.83;1.47;;;13.40;74.60;;;13.97;48.75;98790.69;4981278;28;124297;-85
2022/01/03 04:57:21;;;;;;;4.17;1.80;;;13.50;74.90;;;14.02;48.74;98812.72;4953091;28;123966;-85
2022/01/03 04:59:48;;;;;;;4.30;1.30;;;13.50;75.10;;;14.02;48.82;98813.53;4953633;28;115175;-87
2022/01/03 05:02:16;;;;;;;3.33;1.63;;;13.50;75.30;;;14.02;49.40;98809.94;4952139;28;113877;-86
2022/01/03 05:04:44;;;;;;;6.53;1.80;;;13.50;75.70;;;14.01;49.83;98831.38;4956649;28;125187;-89
2022/01/03 05:07:11;;;;;;;3.43;1.73;;;13.50;76.40;;;13.96;50.54;98823.22;4948202;28;123803;-86
2022/01/03 05:09:38;;;;;;;5.50;1.63;;;13.50;77.20;;;13.87;51.73;98847.44;4953460;28;114375;-88
2022/01/03 05:12:05;;;;;;;4.47;1.60;;;13.40;78.70;;;13.79;52.60;98828.88;4957833;28;113911;-88
2022/01/03 05:14:31;;;;;;;5.13;1.70;;;13.30;79.40;;;13.69;52.80;98830.03;4950144;28;124113;-86
2022/01/03 05:16:58;;;;;;;6.13;2.00;;;13.30;79.60;;;13.60;53.44;98810.63;4946665;28;123787;-86
2022/01/03 05:19:25;;;;;;;3.07;1.40;;;13.20;80.30;;;13.51;53.95;98823.72;4947232;28;114122;-86
2022/01/03 05:21:53;;;;;;;5.17;1.70;;;13.10;80.90;;;13.46;54.24;98815.59;4947679;28;113908;-86
2022/01/03 05:24:20;;;;;;;4.13;1.60;;;13.20;81.20;;;13.43;54.42;98824.56;4944991;28;124012;-87
2022/01/03 05:26:46;;;;;;;3.07;1.60;;;13.00;81.40;;;13.41;54.58;98815.78;4951489;28;123747;-87
2022/01/03 05:29:13;;;;;;;2.77;1.40;;;13.00;82.30;;;13.40;54.78;98819.69;4943648;28;115083;-86
2022/01/03 05:31:40;;;;;;;4.90;1.60;;;13.00;82.10;;;13.37;55.06;98825.88;4950270;28;114935;-87
2022/01/03 05:34:09;;;;;;;7.80;1.40;;;12.90;82.20;;;13.36;55.07;98832.59;4947695;28;123914;-86
2022/01/03 05:36:37;;;;;;;2.93;1.50;;;13.00;82.70;;;13.35;55.29;98830.94;4945795;28;124371;-86
2022/01/03 05:39:03;;;;;;;2.70;1.50;;;12.90;83.00;;;13.32;55.74;98817.75;4944256;28;114885;-86
2022/01/03 05:41:32;;;;;;;3.37;1.40;;;12.90;83.30;;;13.31;55.82;98828.03;4951440;28;113907;-86
2022/01/03 05:43:59;;;;;;;5.87;1.70;;;12.90;83.60;;;13.29;56.13;98816.44;4948371;28;124154;-85
2022/01/03 05:46:25;;;;;;;2.70;1.30;;;12.80;84.00;;;13.26;56.15;98822.66;4949771;28;124764;-86
2022/01/03 05:48:52;;;;;;;4.00;1.67;;;12.80;84.10;;;13.24;56.21;98811.03;4939766;28;114303;-86
2022/01/03 05:51:18;;;;;;;2.60;1.70;;;12.80;84.30;;;13.23;56.37;98826.88;4949569;28;113113;-87
2022/01/03 05:53:45;;;;;;;3.43;1.73;;;12.80;84.50;;;13.22;56.59;98828.03;4940246;28;124115;-86
2022/01/03 05:56:12;;;;;;;6.93;1.87;;;12.70;84.60;;;13.23;56.66;98840.75;4944153;28;123508;-86
2022/01/03 05:58:39;;;;;;;6.43;2.00;;;12.70;84.80;;;13.23;56.75;98839.94;4948895;28;114526;-86
2022/01/03 06:01:06;;;;;;;2.57;1.30;;;12.80;85.10;;;13.21;56.82;98843.03;4946157;28;112498;-86
2022/01/03 06:03:37;;;;;;;4.47;1.93;;;12.70;85.20;;;13.21;56.96;98843.03;4945199;28;124219;-86
2022/01/03 06:06:17;;;;;;;4.60;1.67;;;12.80;85.50;;;13.21;57.18;98836.66;4946432;28;123179;-85
2022/01/03 06:08:43;;;;;;;3.90;1.43;;;12.70;85.50;;;13.21;57.15;98840.25;4952520;28;113289;-86
2022/01/03 06:11:10;;;;;;;2.03;1.30;;;12.70;85.60;;;13.22;57.12;98835.53;4953996;28;113917;-87
2022/01/03 06:13:36;;;;;;;5.10;1.60;;;12.70;85.70;;;13.21;57.18;98840.25;4941143;28;124032;-84
2022/01/03 06:16:04;;;;;;;3.80;1.60;;;12.70;85.80;;;13.23;57.13;98845.47;4944522;28;123811;-86
2022/01/03 06:18:31;;;;;;;3.00;1.40;;;12.70;85.90;;;13.21;57.23;98837.47;4948040;28;115512;-86
2022/01/03 06:20:57;;;;;;;2.70;1.43;;;12.70;86.00;;;13.21;57.22;98837.47;4951876;28;114732;-86
2022/01/03 06:23:25;;;;;;;4.30;1.47;;;12.70;86.10;;;13.21;57.47;98834.69;4954991;28;124295;-86
2022/01/03 06:25:51;;;;;;;3.63;1.83;;;12.70;86.20;;;13.21;57.47;98837.47;4953582;28;122765;-87
2022/01/03 06:28:18;;;;;;;4.43;1.50;;;12.70;86.30;;;13.21;57.64;98829.16;4951574;28;114383;-85
2022/01/03 06:30:45;;;;;;;4.27;1.60;;;12.70;86.50;;;13.20;57.35;98827.53;4937854;28;112839;-85
2022/01/03 06:33:11;;;;;;;7.13;1.60;;;12.90;86.80;;;13.21;57.51;98825.56;4938970;28;124687;-83
2022/01/03 06:35:38;;;;;;;6.53;2.93;;;12.70;86.70;;;13.21;57.87;98820.81;4941207;28;123746;-87
2022/01/03 06:38:05;;;;;;;5.53;2.67;;;12.70;87.80;;;13.19;58.19;98825.91;4939746;28;114433;-87
2022/01/03 06:40:31;;;;;;;5.33;2.60;;;12.60;87.20;;;13.18;57.98;98824.25;4943068;28;113868;-85
2022/01/03 06:42:58;;;;;;;3.40;2.13;;;12.60;87.30;;;13.18;58.40;98827.03;4939098;28;124090;-87
2022/01/03 06:45:25;;;;;;;2.80;1.40;;;12.60;87.50;;;13.19;58.10;98830.63;4937880;28;124587;-87
2022/01/03 06:47:53;;;;;;;5.80;2.67;;;12.60;87.50;;;13.17;57.96;98828.19;4942046;28;114240;-86
2022/01/03 06:50:19;;;;;;;4.17;1.80;;;12.60;87.50;;;13.15;57.99;98829.66;4943009;28;113105;-85
2022/01/03 06:52:46;;;;;;;4.50;1.87;;;12.60;87.40;;;13.13;58.17;98813.34;4938379;28;124071;-85
2022/01/03 06:55:12;;;;;;;7.30;2.07;;;12.60;87.40;;;13.11;57.86;98812.88;4950319;28;123917;-87
2022/01/03 06:57:58;;;;;;;7.43;2.20;;;12.60;87.40;;;13.09;58.25;98817.13;4942118;28;113046;-87
2022/01/03 07:00:25;;;;;;;4.23;1.87;;;12.60;87.50;;;13.08;58.33;98816.28;4939332;28;113927;-85
2022/01/03 07:02:51;;;;;;;3.07;2.00;;;12.60;87.50;;;13.10;58.22;98808.44;4950294;28;124204;-85
2022/01/03 07:05:19;;;;;;;4.80;2.10;;;12.60;87.60;;;13.12;58.21;98820.03;4933293;28;122802;-87
2022/01/03 07:07:45;;;;;;;2.63;1.53;;;12.60;87.70;;;13.13;58.09;98829.97;4946082;28;115681;-87
2022/01/03 07:10:12;;;;;;;3.30;1.40;;;12.60;87.70;;;13.13;58.24;98827.19;4934014;28;114881;-88
2022/01/03 07:12:39;;;;;;;3.93;1.73;;;12.60;87.80;;;13.14;58.25;98820.53;4944589;28;124051;-86
2022/01/03 07:20:38;;;;;;;6.73;1.73;;;12.50;88.20;;;13.04;58.93;98837.50;4954902;28;114611;-87
2022/01/03 07:23:05;;;;;;;6.63;1.60;;;12.50;88.40;;;13.01;59.34;98832.63;4954986;28;123291;-87
2022/01/03 07:25:32;;;;;;;2.40;1.53;;;12.50;88.90;;;12.96;59.49;98827.25;4959504;28;123790;-87
2022/01/03 07:27:58;;;;;;;4.03;1.70;;;12.50;88.90;;;12.90;59.69;98825.78;4956485;28;114323;-87
2022/01/03 07:30:25;;;;;;;7.87;1.97;;;12.40;88.90;;;12.88;59.29;98828.88;4951647;28;114048;-87
2022/01/03 07:32:52;;;;;;;3.73;1.70;;;12.40;89.10;;;12.90;59.60;98837.69;4950296;28;124225;-88
2022/01/03 07:35:18;;;;;;;7.47;2.10;;;12.40;89.20;;;12.89;59.78;98836.03;4950562;28;123835;-86
2022/01/03 07:37:47;;;;;;;3.87;1.70;;;12.40;89.30;;;12.84;59.43;98816.78;4955131;28;114223;-87
2022/01/03 07:40:13;;;;;;;5.17;2.03;;;12.40;89.30;;;12.78;59.50;98823.66;4961782;28;113986;-87
2022/01/03 07:42:42;;;;;;;4.83;2.20;;;12.30;89.20;;;12.71;59.83;98820.56;4950906;28;124408;-87
2022/01/03 07:45:09;;;;;;;5.37;1.73;;;12.30;89.20;;;12.68;59.65;98816.50;4953565;28;123926;-84
2022/01/03 07:47:36;;;;;;;5.07;1.70;;;11.70;88.80;;;12.64;59.81;98809.97;4953601;28;114338;-87
2022/01/03 07:50:06;;;;;;;3.90;1.70;;;12.20;89.30;;;12.64;59.99;98812.72;4969588;28;112974;-86
2022/01/03 07:52:32;;;;;;;5.57;2.00;;;12.20;89.50;;;12.65;60.22;98830.97;4952922;28;123810;-85
2022/01/03 07:55:19;;;;;;;11.50;2.63;;;12.20;89.60;;;12.65;59.96;98825.44;4954929;28;124466;-87
2022/01/03 07:57:46;;;;;;;4.63;1.70;;;12.20;89.80;;;12.59;60.38;98832.28;4953197;28;115774;-87
2022/01/03 08:00:16;;;;;;;8.20;2.20;;;12.10;89.90;;;12.53;60.60;98820.53;4953663;28;114960;-88
2022/01/03 08:02:44;;;;;;;4.50;2.17;;;12.10;90.00;;;12.49;60.64;98818.75;4983137;28;124695;-86
2022/01/03 08:05:14;;;;;;;5.17;2.07;;;12.10;90.10;;;12.44;60.74;98805.03;4963029;28;123778;-86
2022/01/03 08:07:45;;;;;;;4.10;1.40;;;12.00;90.10;;;12.41;60.84;98797.38;4949667;28;114489;-88
2022/01/03 08:10:15;;;;;;;4.23;1.73;;;12.00;90.10;;;12.36;60.75;98790.06;4952888;28;114140;-87
2022/01/03 08:12:44;;;;;;;6.07;2.23;;;11.90;90.20;;;12.33;61.09;98797.06;4942313;28;124065;-85
2022/01/03 08:15:10;;;;;;;5.23;2.00;;;12.10;90.30;;;12.33;60.89;98799.00;4951453;28;123098;-87
2022/01/03 08:17:37;;;;;;;4.23;1.63;;;11.90;90.30;;;12.33;61.14;98799.00;4943638;28;114289;-87
2022/01/03 08:20:05;;;;;;;4.93;1.57;;;11.90;90.30;;;12.37;61.01;98797.22;4946106;28;113889;-86
2022/01/03 08:22:32;;;;;;;5.97;2.03;;;11.90;90.40;;;12.41;60.96;98794.63;4941391;28;123807;-87
2022/01/03 08:25:01;;;;;;;4.63;1.87;;;11.90;90.40;;;12.43;61.19;98804.22;4942821;28;124134;-89
2022/01/03 08:27:27;;;;;;;2.77;1.80;;;11.90;90.50;;;12.46;60.93;98802.78;4942008;28;113640;-86
2022/01/03 08:29:55;;;;;;;4.60;1.90;;;11.90;90.50;;;12.49;61.31;98796.56;4941337;28;113694;-87
2022/01/03 08:32:21;;;;;;;4.73;1.70;;;12.00;90.60;;;12.51;61.00;98806.19;4940424;28;124292;-86
2022/01/03 08:34:48;;;;;;;6.10;1.80;;;12.00;90.60;;;12.53;61.38;98805.88;4945517;28;124286;-85
2022/01/03 08:37:16;;;;;;;6.90;2.00;;;12.00;90.60;;;12.54;60.94;98807.50;4941341;28;114070;-86
2022/01/03 08:39:44;;;;;;;5.23;1.60;;;12.00;90.60;;;12.54;61.25;98808.31;4945185;28;114114;-87
2022/01/03 08:42:10;;;;;;;6.40;1.80;;;12.00;90.60;;;12.58;61.18;98822.34;4950223;28;124533;-88
2022/01/03 08:44:37;;;;;;;5.50;2.30;;;12.00;90.70;;;12.60;61.13;98823.66;4938896;28;123800;-87
2022/01/03 08:47:05;;;;;;;4.50;2.17;;;12.00;90.70;;;12.65;60.96;98822.66;4939100;28;115486;-87
2022/01/03 08:49:33;;;;;;;2.70;1.70;;;12.10;90.70;;;12.68;60.98;98827.59;4938219;28;114951;-85
2022/01/03 08:52:00;;;;;;;4.40;2.20;;;12.10;90.70;;;12.71;60.98;98823.34;4950156;28;123770;-88
2022/01/03 08:54:26;;;;;;;3.43;1.87;;;12.10;90.70;;;12.76;60.52;98820.38;4947365;28;124917;-87
2022/01/03 08:56:53;;;;;;;4.73;2.03;;;12.10;90.70;;;12.78;60.73;98818.91;4939739;28;114111;-86
2022/01/03 08:59:20;;;;;;;3.00;1.57;;;12.20;90.70;;;12.81;60.79;98818.28;4946101;28;113878;-86
2022/01/03 09:01:47;;;;;;;5.77;2.10;;;12.20;90.70;;;12.85;60.34;98814.84;4965401;28;124328;-86
2022/01/03 09:04:14;;;;;;;9.17;2.20;;;12.20;90.70;;;12.87;60.62;98805.06;4945369;28;123176;-86
2022/01/03 09:06:40;;;;;;;2.57;2.00;;;12.30;90.70;;;12.87;60.86;98809.78;4948606;28;113845;-84
2022/01/03 09:09:07;;;;;;;5.60;2.03;;;12.20;90.80;;;12.89;60.83;98813.03;4933257;28;113506;-86
2022/01/03 09:11:34;;;;;;;5.60;2.37;;;12.30;90.90;;;12.92;61.04;98812.38;4935999;28;123969;-87
2022/01/03 09:14:00;;;;;;;4.23;2.53;;;12.30;90.90;;;12.95;61.22;98800.63;4941276;28;125654;-86
2022/01/03 09:16:27;;;;;;;3.23;2.03;;;12.30;91.00;;;12.97;61.11;98812.22;4936932;28;114215;-78
2022/01/03 09:18:56;;;;;;;3.60;2.10;;;12.30;91.10;;;13.02;61.19;98800.97;4943074;28;113048;-75
2022/01/03 09:21:23;;;;;;;7.20;2.63;;;12.40;91.20;;;13.09;61.75;98801.28;4937698;28;123006;-81
2022/01/03 09:23:54;;;;;;;6.77;2.40;;;12.40;91.60;;;13.18;62.05;98795.72;4949743;28;122842;-80
2022/01/03 09:29:06;;;;;;;4.40;2.37;;;12.60;92.30;;;13.43;62.22;98800.41;4939248;28;114642;-83
2022/01/03 09:31:36;;;;;;;7.00;2.80;;;12.70;92.10;;;13.52;62.13;98794.84;4931365;28;123819;-81
2022/01/03 09:34:06;;;;;;;3.63;1.63;;;12.80;92.20;;;13.59;62.19;98797.88;4957318;28;124248;-84
2022/01/03 09:36:33;;;;;;;6.70;2.37;;;12.80;92.10;;;13.67;61.78;98788.75;4952147;28;114953;-80
2022/01/03 09:39:03;;;;;;;8.63;2.40;;;12.90;92.00;;;13.69;61.37;98791.97;4949287;28;115232;-82
2022/01/03 09:41:33;;;;;;;5.63;2.43;;;13.10;91.90;;;13.69;61.36;98783.66;4947533;28;123988;-83
2022/01/03 09:44:06;;;;;;;7.23;2.23;;;13.00;91.70;;;13.72;61.23;98778.56;4950948;28;123930;-84
2022/01/03 09:46:42;;;;;;;6.07;1.97;;;13.00;91.70;;;13.75;61.27;98775.94;4933076;28;114273;-80
2022/01/03 09:49:11;;;;;;;4.97;2.40;;;13.00;91.60;;;13.78;61.16;98777.22;4930250;28;113861;-84
2022/01/03 09:51:40;;;;;;;8.00;2.30;;;13.10;91.60;;;13.84;60.94;98781.47;4936483;28;124713;-80
2022/01/03 09:54:19;;;;;;;5.07;2.20;;;13.10;91.60;;;13.91;60.93;98784.53;4932813;28;124300;-81
2022/01/03 09:56:46;;;;;;;8.83;1.93;;;13.10;91.60;;;13.96;60.63;98783.53;4944437;28;113911;-80
2022/01/03 09:59:14;;;;;;;5.07;2.40;;;13.20;91.60;;;14.00;60.40;98779.75;4948452;28;114114;-89
2022/01/03 10:01:41;;;;;;;6.97;2.50;;;13.20;91.50;;;14.01;59.87;98780.56;4940911;28;124074;-86
2022/01/03 10:04:10;;;;;;;5.03;1.93;;;13.20;91.20;;;14.00;59.54;98782.53;4947393;28;124658;-87
2022/01/03 10:06:41;;;;;;;4.43;2.10;;;13.30;91.00;;;13.95;58.73;98771.59;4934344;28;114506;-87
2022/01/03 10:09:08;;;;;;;7.30;2.30;;;13.30;90.60;;;13.89;57.79;98768.22;4943480;28;114173;-83
2022/01/03 10:11:34;;;;;;;5.27;1.90;;;13.20;90.00;;;13.88;57.64;98771.31;4949279;28;123843;-88
2022/01/03 10:14:01;;;;;;;2.40;1.60;;;13.30;89.70;;;13.86;56.91;98768.03;4944539;28;122983;-87
2022/01/03 10:16:29;;;;;;;3.90;1.70;;;13.20;88.90;;;13.86;56.96;98773.59;4955139;28;114276;-87
2022/01/03 10:18:56;;;;;;;2.13;1.40;;;13.20;88.70;;;13.86;56.60;98776.38;4950837;28;113956;-87
2022/01/03 10:21:39;;;;;;;6.33;1.67;;;13.20;88.20;;;13.83;55.78;98771.50;4949783;28;123065;-88
2022/01/03 10:24:07;;;;;;;4.27;1.87;;;13.40;88.00;;;13.78;55.75;98771.69;4930662;28;123714;-86
2022/01/03 10:26:36;;;;;;;3.67;1.67;;;13.20;86.90;;;13.76;55.32;98768.44;4943964;28;115932;-88
2022/01/03 10:29:26;;;;;;;3.67;1.53;;;13.20;86.40;;;13.75;55.11;98766.78;4948515;28;115004;-85
2022/01/03 10:31:56;;;;;;;3.17;1.50;;;13.20;85.90;;;13.72;55.16;98759.94;4934212;28;124188;-86